Time;durP1;ratioP1;P1;durP2;ratioP2;P2;SDS_P1;SDS_P2;PMS_P1;PMS_P2;Temp;Humidity;BMP_temperature;BMP_pressure;BME280_temperature;BME280_humidity;BME280_pressure;Samples;Min_cycle;Max_cycle;Signal;HPM_P1;HPM_P2
2022/05/18 00:00:57;;;;;;;1.52;0.47;;;16.90;65.10;;;;;;4978001;28;20403;-75
2022/05/18 00:03:27;;;;;;;1.17;0.57;;;16.80;65.00;;;;;;4986072;28;20473;-73
2022/05/18 00:05:53;;;;;;;0.93;0.50;;;16.80;65.10;;;;;;4985510;28;20035;-74
2022/05/18 00:08:19;;;;;;;0.63;0.40;;;16.80;65.10;;;;;;4984794;28;20096;-74
2022/05/18 00:10:47;;;;;;;1.02;0.60;;;16.70;65.00;;;;;;4961215;28;20073;-74
2022/05/18 00:13:13;;;;;;;2.67;0.60;;;16.70;65.00;;;;;;4984634;28;20031;-74
2022/05/18 00:15:40;;;;;;;1.17;0.50;;;16.60;64.90;;;;;;4984704;28;20065;-74
2022/05/18 00:18:06;;;;;;;1.42;0.52;;;16.60;64.90;;;;;;4987525;28;20070;-75
2022/05/18 00:20:32;;;;;;;1.67;0.75;;;16.60;65.00;;;;;;4985924;28;20031;-75
2022/05/18 00:23:01;;;;;;;3.20;0.77;;;16.50;64.90;;;;;;4987988;28;20041;-74
2022/05/18 00:25:30;;;;;;;3.40;0.95;;;16.50;64.90;;;;;;4985784;28;20034;-74
2022/05/18 00:27:56;;;;;;;2.35;1.48;;;16.40;64.80;;;;;;4978152;28;20124;-75
2022/05/18 00:30:24;;;;;;;2.40;1.20;;;16.40;64.80;;;;;;4983634;28;20379;-74
2022/05/18 00:32:51;;;;;;;1.33;0.85;;;16.40;65.40;;;;;;4986663;28;20514;-74
2022/05/18 00:35:17;;;;;;;2.22;0.93;;;16.40;64.90;;;;;;4985190;28;20027;-73
2022/05/18 00:37:44;;;;;;;3.00;0.98;;;16.30;64.80;;;;;;4986093;28;20031;-73
2022/05/18 00:40:13;;;;;;;2.88;0.82;;;16.30;64.80;;;;;;4968603;28;20134;-75
2022/05/18 00:42:39;;;;;;;1.30;0.70;;;16.30;64.90;;;;;;4984568;28;20026;-73
2022/05/18 00:45:06;;;;;;;1.25;0.60;;;16.30;64.90;;;;;;4985586;28;20026;-73
2022/05/18 00:47:32;;;;;;;1.90;0.70;;;16.20;64.80;;;;;;4981912;28;20185;-74
2022/05/18 00:50:07;;;;;;;1.23;0.88;;;16.20;64.80;;;;;;4985672;28;20113;-74
2022/05/18 00:52:45;;;;;;;0.65;0.47;;;16.20;64.90;;;;;;4982490;28;20023;-74
2022/05/18 00:55:14;;;;;;;2.42;0.75;;;16.10;64.80;;;;;;4957580;28;20033;-74
2022/05/18 00:57:50;;;;;;;1.13;0.60;;;16.10;64.70;;;;;;4985138;28;20126;-74
2022/05/18 01:00:18;;;;;;;3.92;1.38;;;16.10;64.80;;;;;;4977765;28;20089;-74
2022/05/18 01:02:50;;;;;;;3.13;0.90;;;16.00;64.60;;;;;;4983412;28;20034;-74
2022/05/18 01:05:25;;;;;;;1.95;0.60;;;16.00;64.70;;;;;;4981342;28;20057;-73
2022/05/18 01:07:53;;;;;;;3.72;1.23;;;16.00;64.70;;;;;;4976869;28;20062;-73
2022/05/18 01:10:19;;;;;;;2.78;0.73;;;16.00;64.80;;;;;;4972913;28;20482;-73
2022/05/18 01:12:46;;;;;;;1.58;0.82;;;16.00;64.80;;;;;;4979450;28;20039;-73
2022/05/18 01:15:18;;;;;;;1.52;0.65;;;15.90;64.70;;;;;;4974201;28;20026;-74
2022/05/18 01:17:53;;;;;;;2.72;0.85;;;15.90;64.80;;;;;;4965980;28;20039;-73
2022/05/18 01:20:22;;;;;;;2.58;1.05;;;15.90;64.80;;;;;;4980994;28;20030;-73
2022/05/18 01:22:51;;;;;;;3.58;1.48;;;15.90;64.80;;;;;;4978773;28;20470;-73
2022/05/18 01:25:41;;;;;;;2.10;0.75;;;15.80;64.70;;;;;;4966538;28;20367;-74
2022/05/18 01:28:08;;;;;;;2.13;0.85;;;15.80;64.80;;;;;;4977714;28;20048;-73
2022/05/18 01:30:38;;;;;;;1.63;0.88;;;15.70;64.60;;;;;;4976151;28;20072;-74
2022/05/18 01:33:07;;;;;;;2.75;0.85;;;15.70;64.60;;;;;;4982636;28;20521;-73
2022/05/18 01:35:37;;;;;;;1.27;0.63;;;15.70;64.70;;;;;;4968105;28;20205;-73
2022/05/18 01:38:03;;;;;;;2.00;1.25;;;15.60;64.60;;;;;;4970308;28;20125;-74
2022/05/18 01:40:44;;;;;;;4.10;1.00;;;15.60;64.60;;;;;;4980312;28;20105;-74
2022/05/18 01:43:30;;;;;;;2.05;0.70;;;15.60;64.80;;;;;;4981294;28;20129;-74
2022/05/18 01:46:00;;;;;;;1.38;0.57;;;15.50;64.60;;;;;;4987588;28;20030;-74
2022/05/18 01:48:32;;;;;;;2.22;0.98;;;15.40;64.40;;;;;;4952919;28;1099611;-73
2022/05/18 01:50:59;;;;;;;2.77;1.13;;;15.50;64.70;;;;;;4984825;28;20113;-73
2022/05/18 01:53:27;;;;;;;3.85;1.42;;;15.40;64.50;;;;;;4987135;28;20428;-74
2022/05/18 01:55:52;;;;;;;2.35;1.00;;;15.40;64.50;;;;;;4987627;28;20130;-74
2022/05/18 01:58:18;;;;;;;2.90;0.73;;;15.40;64.60;;;;;;4990396;28;20180;-73
2022/05/18 02:00:45;;;;;;;2.85;1.00;;;15.40;64.60;;;;;;4990033;28;20559;-74
2022/05/18 02:03:13;;;;;;;3.58;0.75;;;15.30;64.50;;;;;;4973733;28;20030;-73
2022/05/18 02:05:40;;;;;;;3.75;0.90;;;15.30;64.60;;;;;;4991517;28;20455;-74
2022/05/18 02:08:07;;;;;;;3.30;1.20;;;15.30;64.60;;;;;;4992483;28;20042;-74
2022/05/18 02:10:34;;;;;;;4.10;1.58;;;15.20;64.40;;;;;;4986778;28;20030;-74
2022/05/18 02:13:00;;;;;;;2.50;0.95;;;15.30;64.70;;;;;;4991420;28;20097;-74
2022/05/18 02:15:27;;;;;;;2.53;1.00;;;15.20;64.50;;;;;;4991419;28;20033;-73
2022/05/18 02:17:53;;;;;;;3.95;1.05;;;15.20;64.60;;;;;;4991248;28;20057;-75
2022/05/18 02:20:20;;;;;;;2.33;0.95;;;15.10;64.40;;;;;;4991763;28;20147;-75
2022/05/18 02:22:47;;;;;;;2.85;0.90;;;15.20;64.70;;;;;;4994649;28;20029;-74
2022/05/18 02:25:13;;;;;;;1.25;0.73;;;15.10;64.60;;;;;;4987401;28;20029;-74
2022/05/18 02:27:39;;;;;;;1.48;0.75;;;15.10;64.60;;;;;;4997199;28;20050;-75
2022/05/18 02:30:07;;;;;;;3.63;0.90;;;15.10;64.70;;;;;;4986204;28;20026;-74
2022/05/18 02:32:33;;;;;;;2.80;0.80;;;15.10;64.70;;;;;;4992324;28;20066;-74
2022/05/18 02:34:59;;;;;;;2.72;0.90;;;15.00;64.60;;;;;;4993719;28;20037;-75
2022/05/18 02:37:26;;;;;;;1.85;0.80;;;15.00;64.60;;;;;;4991501;28;20034;-74
2022/05/18 02:39:52;;;;;;;3.08;0.90;;;15.10;64.80;;;;;;4992626;28;20030;-75
2022/05/18 02:42:18;;;;;;;4.03;1.23;;;15.00;64.70;;;;;;5000608;28;20033;-75
2022/05/18 02:44:44;;;;;;;2.22;1.00;;;15.00;64.80;;;;;;5004973;28;20022;-74
2022/05/18 02:47:10;;;;;;;3.10;1.50;;;15.00;64.80;;;;;;4998867;28;20054;-75
2022/05/18 02:49:36;;;;;;;4.70;0.98;;;15.00;64.80;;;;;;4993167;28;20030;-75
2022/05/18 02:52:02;;;;;;;2.90;0.95;;;14.90;64.70;;;;;;5003214;28;20090;-74
2022/05/18 02:57:13;;;;;;;3.03;1.23;;;14.90;64.80;;;;;;4997318;28;20100;-74
2022/05/18 02:59:40;;;;;;;3.15;1.17;;;14.90;64.80;;;;;;4975777;28;20304;-75
2022/05/18 03:02:06;;;;;;;2.90;1.30;;;14.90;64.90;;;;;;4985977;28;20477;-74
2022/05/18 03:04:32;;;;;;;2.40;0.73;;;14.80;64.80;;;;;;4991139;28;20157;-74
2022/05/18 03:06:59;;;;;;;1.85;1.10;;;14.80;64.80;;;;;;4987201;28;20047;-74
2022/05/18 03:09:25;;;;;;;4.68;1.58;;;14.80;64.80;;;;;;4989505;28;20080;-74
2022/05/18 03:11:51;;;;;;;2.80;1.05;;;14.80;64.90;;;;;;4983488;28;20038;-74
2022/05/18 03:14:18;;;;;;;4.68;1.45;;;14.80;64.90;;;;;;4989801;28;20035;-74
2022/05/18 03:16:44;;;;;;;4.35;1.20;;;14.80;64.90;;;;;;4989211;28;20656;-74
2022/05/18 03:19:12;;;;;;;2.72;1.10;;;14.70;64.70;;;;;;4990320;28;20129;-75
2022/05/18 03:24:22;;;;;;;5.38;2.42;;;14.70;64.80;;;;;;4990361;28;20050;-74
2022/05/18 03:26:48;;;;;;;5.10;1.15;;;14.70;64.80;;;;;;4993078;28;20085;-74
2022/05/18 03:29:14;;;;;;;6.15;1.55;;;14.70;64.80;;;;;;4992488;28;20507;-75
2022/05/18 03:31:40;;;;;;;2.55;0.90;;;14.70;64.90;;;;;;4991795;28;20463;-75
2022/05/18 03:34:08;;;;;;;3.42;1.10;;;14.60;64.80;;;;;;4984493;28;20034;-74
2022/05/18 03:36:34;;;;;;;1.52;0.90;;;14.60;64.80;;;;;;4990932;28;20037;-74
2022/05/18 03:39:01;;;;;;;4.38;1.33;;;14.60;64.90;;;;;;4990707;28;20205;-74
2022/05/18 03:41:27;;;;;;;4.82;1.55;;;14.60;64.90;;;;;;4988576;28;20133;-74
2022/05/18 03:43:53;;;;;;;4.05;1.13;;;14.60;65.00;;;;;;4992208;28;20034;-74
2022/05/18 03:46:19;;;;;;;4.45;1.30;;;14.50;64.80;;;;;;4992252;28;20038;-74
2022/05/18 03:48:45;;;;;;;2.60;1.30;;;14.50;64.90;;;;;;4993576;28;20379;-74
2022/05/18 03:51:14;;;;;;;2.08;1.00;;;14.50;64.90;;;;;;4987402;28;20083;-74
2022/05/18 03:53:40;;;;;;;4.28;1.92;;;14.40;64.80;;;;;;4986004;28;20176;-74
2022/05/18 03:56:08;;;;;;;5.03;1.98;;;14.40;64.90;;;;;;4989514;28;20037;-74
2022/05/18 03:58:34;;;;;;;3.92;1.35;;;14.40;64.90;;;;;;4988756;28;20520;-74
2022/05/18 04:01:01;;;;;;;4.40;1.42;;;14.40;65.00;;;;;;4989538;28;20161;-74
2022/05/18 04:03:29;;;;;;;3.88;2.13;;;14.40;65.00;;;;;;4989333;28;20590;-74
2022/05/18 04:05:55;;;;;;;3.97;1.23;;;14.30;64.80;;;;;;4986968;28;20125;-74
2022/05/18 04:08:21;;;;;;;3.25;0.93;;;14.30;64.90;;;;;;4983672;28;20041;-74
2022/05/18 04:10:47;;;;;;;3.03;1.15;;;14.30;64.90;;;;;;4993906;28;20035;-74
2022/05/18 04:13:21;;;;;;;4.05;1.33;;;14.30;65.40;;;;;;4977222;28;20136;-75
2022/05/18 04:15:47;;;;;;;1.55;0.95;;;14.20;64.90;;;;;;4982567;28;20026;-74
2022/05/18 04:18:13;;;;;;;3.78;1.48;;;14.20;64.80;;;;;;4988128;28;20034;-74
2022/05/18 04:20:40;;;;;;;4.25;1.23;;;14.20;64.90;;;;;;4989440;28;20064;-74
2022/05/18 04:23:07;;;;;;;2.92;1.20;;;14.10;64.70;;;;;;4990560;28;20054;-73
2022/05/18 04:25:36;;;;;;;3.50;1.10;;;14.10;64.70;;;;;;4988341;28;20038;-73
2022/05/18 04:28:03;;;;;;;4.25;1.35;;;14.10;64.80;;;;;;4970674;28;20140;-74
2022/05/18 04:30:29;;;;;;;3.22;1.08;;;14.10;64.80;;;;;;4988317;28;20371;-74
2022/05/18 04:32:55;;;;;;;2.80;1.13;;;14.10;64.80;;;;;;4987623;28;20042;-74
2022/05/18 04:35:24;;;;;;;2.92;1.10;;;14.00;64.60;;;;;;4987645;28;20107;-74
2022/05/18 04:37:50;;;;;;;3.20;1.17;;;14.00;64.70;;;;;;4988491;28;20034;-74
2022/05/18 04:40:17;;;;;;;3.85;1.17;;;14.00;64.70;;;;;;4988276;28;20474;-74
2022/05/18 04:42:43;;;;;;;2.33;1.10;;;14.00;64.70;;;;;;4980416;28;20053;-74
2022/05/18 04:45:12;;;;;;;4.00;1.17;;;13.90;64.60;;;;;;4986215;28;20114;-74
2022/05/18 04:47:38;;;;;;;4.13;0.93;;;14.00;64.80;;;;;;4978382;28;20149;-74
2022/05/18 04:50:05;;;;;;;4.10;0.95;;;13.90;64.60;;;;;;4985564;28;20069;-74
2022/05/18 04:52:31;;;;;;;5.47;1.25;;;13.90;64.60;;;;;;4979116;28;20038;-74
2022/05/18 04:54:57;;;;;;;6.45;2.08;;;13.90;64.60;;;;;;4982842;28;20331;-74
2022/05/18 04:57:23;;;;;;;2.22;1.02;;;13.90;64.60;;;;;;4988721;28;20262;-74
2022/05/18 04:59:50;;;;;;;3.22;1.00;;;13.90;64.60;;;;;;4977225;28;20023;-74
2022/05/18 05:02:16;;;;;;;4.22;1.40;;;13.90;64.60;;;;;;4980554;28;20076;-74
2022/05/18 05:04:42;;;;;;;3.92;1.70;;;13.80;64.50;;;;;;4985173;28;20269;-74
2022/05/18 05:07:08;;;;;;;1.73;0.90;;;13.90;64.60;;;;;;4981617;28;20707;-74
2022/05/18 05:09:35;;;;;;;2.50;1.55;;;13.90;64.60;;;;;;4979937;28;20522;-74
2022/05/18 05:12:01;;;;;;;4.30;1.50;;;13.90;64.60;;;;;;4987867;28;20144;-74
2022/05/18 05:14:27;;;;;;;3.38;1.27;;;13.90;64.60;;;;;;4985997;28;20049;-74
2022/05/18 05:16:53;;;;;;;3.13;1.52;;;13.90;64.60;;;;;;4984171;28;20521;-74
2022/05/18 05:19:19;;;;;;;1.48;1.10;;;13.90;64.50;;;;;;4968183;28;20042;-74
2022/05/18 05:21:45;;;;;;;3.95;1.20;;;13.90;64.50;;;;;;4986136;28;20034;-74
2022/05/18 05:24:15;;;;;;;3.13;1.48;;;13.90;64.40;;;;;;4981002;28;20030;-74
2022/05/18 05:26:42;;;;;;;3.55;1.27;;;13.90;64.40;;;;;;4968024;28;20038;-74
2022/05/18 05:29:11;;;;;;;2.55;1.38;;;14.00;64.50;;;;;;4971540;28;20344;-74
2022/05/18 05:31:37;;;;;;;5.15;1.52;;;14.00;64.50;;;;;;4985209;28;20371;-75
2022/05/18 05:34:04;;;;;;;2.15;1.15;;;14.00;64.40;;;;;;4979466;28;20037;-74
2022/05/18 05:36:31;;;;;;;6.72;1.50;;;14.00;64.40;;;;;;4985692;28;20049;-74
2022/05/18 05:38:57;;;;;;;5.68;1.20;;;14.00;64.30;;;;;;4983424;28;20060;-74
2022/05/18 05:41:26;;;;;;;3.03;0.93;;;14.10;64.50;;;;;;4986897;28;20498;-74
2022/05/18 05:43:56;;;;;;;2.95;1.55;;;14.10;64.50;;;;;;4980187;28;20038;-73
2022/05/18 05:46:23;;;;;;;3.75;1.17;;;14.20;64.60;;;;;;4984204;28;20786;-73
2022/05/18 05:48:49;;;;;;;3.58;1.25;;;14.20;64.50;;;;;;4980228;28;20156;-73
2022/05/18 05:51:16;;;;;;;3.85;1.95;;;14.20;64.40;;;;;;4962283;28;20023;-74
2022/05/18 05:53:46;;;;;;;4.32;1.95;;;14.30;64.50;;;;;;4977064;28;20038;-74
2022/05/18 05:56:15;;;;;;;5.63;1.00;;;14.30;64.50;;;;;;4983998;28;20034;-74
2022/05/18 05:58:43;;;;;;;3.40;1.42;;;14.40;64.60;;;;;;4979966;28;20077;-74
2022/05/18 06:01:11;;;;;;;6.07;1.42;;;14.40;64.70;;;;;;4968564;28;20045;-78
2022/05/18 06:03:38;;;;;;;7.40;2.30;;;14.50;65.60;;;;;;4973423;28;20553;-75
2022/05/18 06:06:05;;;;;;;4.88;1.80;;;14.70;66.20;;;;;;4985006;28;20126;-75
2022/05/18 06:08:32;;;;;;;8.82;1.90;;;14.80;66.50;;;;;;4982961;28;20548;-75
2022/05/18 06:10:59;;;;;;;4.50;1.52;;;15.00;67.00;;;;;;4973000;28;20114;-74
2022/05/18 06:13:26;;;;;;;4.93;1.40;;;15.20;67.50;;;;;;4975313;28;20152;-75
2022/05/18 06:15:52;;;;;;;3.45;1.70;;;15.30;67.60;;;;;;4983691;28;20037;-75
2022/05/18 06:18:18;;;;;;;4.72;1.45;;;15.50;67.90;;;;;;4963922;28;20031;-79
2022/05/18 06:20:47;;;;;;;4.72;1.90;;;15.70;68.40;;;;;;4983437;28;20474;-75
2022/05/18 06:23:14;;;;;;;5.70;1.90;;;15.90;68.90;;;;;;4983072;28;20030;-79
2022/05/18 06:25:40;;;;;;;5.03;1.63;;;16.20;69.50;;;;;;4950032;28;20030;-75
2022/05/18 06:28:07;;;;;;;7.53;2.13;;;16.80;69.80;;;;;;4978386;28;20085;-75
2022/05/18 06:30:34;;;;;;;5.53;1.50;;;17.30;69.50;;;;;;4984203;28;20035;-74
2022/05/18 06:33:00;;;;;;;3.22;1.25;;;17.90;69.40;;;;;;4988432;28;20022;-74
2022/05/18 06:35:25;;;;;;;5.20;1.90;;;18.40;69.10;;;;;;4987464;28;20073;-82
2022/05/18 06:37:52;;;;;;;1.95;1.00;;;18.90;69.20;;;;;;4982756;28;20026;-82
2022/05/18 06:40:18;;;;;;;4.85;1.40;;;19.40;69.40;;;;;;4983542;28;20041;-80
2022/05/18 06:42:44;;;;;;;4.35;0.93;;;19.90;69.50;;;;;;4966325;28;20449;-81
2022/05/18 06:45:13;;;;;;;5.07;1.48;;;20.30;69.30;;;;;;4987476;28;20027;-75
2022/05/18 06:47:40;;;;;;;5.40;1.40;;;20.70;69.30;;;;;;4986162;28;20100;-73
2022/05/18 06:50:09;;;;;;;4.45;1.55;;;21.10;69.30;;;;;;4987890;28;20025;-75
2022/05/18 06:52:35;;;;;;;4.78;1.20;;;21.60;69.20;;;;;;4980006;28;20500;-76
2022/05/18 06:55:02;;;;;;;6.05;1.30;;;22.00;68.70;;;;;;4985029;28;20041;-77
2022/05/18 06:57:27;;;;;;;3.78;1.45;;;22.30;68.30;;;;;;4983301;28;20035;-75
2022/05/18 06:59:53;;;;;;;3.85;1.55;;;22.30;67.90;;;;;;4978459;28;20085;-75
2022/05/18 07:02:19;;;;;;;3.42;1.67;;;22.30;68.00;;;;;;4957949;28;20151;-75
2022/05/18 07:04:45;;;;;;;4.30;1.73;;;22.10;67.90;;;;;;4987950;28;20026;-80
2022/05/18 07:07:11;;;;;;;6.22;2.03;;;22.10;68.10;;;;;;4985426;28;20606;-75
2022/05/18 07:09:37;;;;;;;5.30;1.02;;;21.90;68.00;;;;;;4988482;28;20084;-82
2022/05/18 07:12:03;;;;;;;5.95;1.00;;;22.00;68.50;;;;;;4981802;28;20117;-81
2022/05/18 07:14:29;;;;;;;5.78;1.58;;;22.30;69.10;;;;;;4979083;28;20635;-81
2022/05/18 07:16:56;;;;;;;9.32;1.73;;;22.90;68.40;;;;;;4984342;28;20120;-81
2022/05/18 07:19:29;;;;;;;5.38;1.30;;;23.50;67.90;;;;;;4974968;28;20022;-81
2022/05/18 07:21:55;;;;;;;6.45;1.63;;;24.30;67.40;;;;;;4982041;28;20433;-82
2022/05/18 07:24:21;;;;;;;4.53;1.42;;;24.80;66.50;;;;;;4966065;28;20034;-82
2022/05/18 07:26:47;;;;;;;5.68;1.70;;;25.10;65.90;;;;;;4992087;28;20065;-82
2022/05/18 07:29:13;;;;;;;4.75;1.63;;;25.20;65.40;;;;;;4985872;28;20081;-82
2022/05/18 07:34:23;;;;;;;5.32;1.40;;;25.10;65.30;;;;;;4988431;28;20033;-82
2022/05/18 07:36:54;;;;;;;4.07;1.35;;;25.00;65.50;;;;;;4988978;28;20033;-82
2022/05/18 07:39:20;;;;;;;4.47;1.58;;;24.90;65.40;;;;;;4989383;28;20041;-83
2022/05/18 07:41:46;;;;;;;6.60;1.83;;;25.00;65.60;;;;;;4984379;28;20038;-82
2022/05/18 07:44:13;;;;;;;5.15;1.20;;;25.30;65.10;;;;;;4984750;28;20030;-81
2022/05/18 07:46:39;;;;;;;5.38;1.45;;;25.50;64.40;;;;;;4983588;28;20390;-82
2022/05/18 07:49:05;;;;;;;5.95;1.95;;;25.60;64.00;;;;;;4971319;28;20050;-82
2022/05/18 07:51:32;;;;;;;5.35;1.70;;;25.70;63.70;;;;;;4965790;28;20030;-82
2022/05/18 07:53:58;;;;;;;6.18;1.67;;;25.80;63.40;;;;;;4989335;28;20034;-86
2022/05/18 07:56:24;;;;;;;6.60;1.58;;;25.90;63.20;;;;;;4983822;28;20064;-84
2022/05/18 07:58:50;;;;;;;3.97;1.42;;;25.90;62.90;;;;;;4984740;28;20043;-87
2022/05/18 08:01:16;;;;;;;4.50;1.30;;;25.90;62.80;;;;;;4992555;28;20091;-81
2022/05/18 08:03:42;;;;;;;4.60;2.15;;;25.90;62.80;;;;;;4985833;28;20040;-83
2022/05/18 08:06:10;;;;;;;5.47;1.63;;;26.00;62.80;;;;;;4987177;28;20006;-81
2022/05/18 08:08:36;;;;;;;5.38;2.17;;;26.20;62.50;;;;;;4967048;28;20451;-80
2022/05/18 08:16:33;;;;;;;5.13;1.90;;;26.30;61.40;;;;;;4971159;28;20038;-79
2022/05/18 08:18:59;;;;;;;7.43;1.90;;;26.20;61.50;;;;;;4973252;28;20033;-78
2022/05/18 08:21:25;;;;;;;4.30;1.90;;;26.20;61.40;;;;;;4978265;28;20478;-78
2022/05/18 08:23:52;;;;;;;6.30;2.03;;;26.20;61.40;;;;;;4987327;28;20033;-74
2022/05/18 08:26:18;;;;;;;7.28;2.05;;;26.10;61.20;;;;;;4991572;28;20129;-74
2022/05/18 08:28:44;;;;;;;5.20;1.50;;;26.10;61.20;;;;;;4981733;28;20034;-74
2022/05/18 08:31:12;;;;;;;6.28;1.92;;;26.20;61.00;;;;;;4950254;28;20029;-74
2022/05/18 08:33:38;;;;;;;9.63;2.85;;;26.20;60.60;;;;;;4987518;28;20029;-74
2022/05/18 08:36:07;;;;;;;9.23;3.22;;;26.20;60.50;;;;;;4982961;28;20052;-74
2022/05/18 08:38:34;;;;;;;6.53;1.85;;;26.00;60.30;;;;;;4981913;28;20486;-74
2022/05/18 08:41:17;;;;;;;4.22;1.48;;;25.80;60.40;;;;;;4983805;28;20092;-75
2022/05/18 08:43:47;;;;;;;5.35;2.15;;;25.60;60.40;;;;;;4977021;28;20068;-74
2022/05/18 08:46:31;;;;;;;7.78;2.47;;;25.40;60.80;;;;;;4981707;28;20030;-77
2022/05/18 08:49:18;;;;;;;7.85;1.67;;;25.30;60.90;;;;;;4962629;28;20041;-74
2022/05/18 08:52:03;;;;;;;5.65;1.77;;;25.20;60.90;;;;;;4976414;28;20291;-81
2022/05/18 08:54:52;;;;;;;6.88;1.85;;;25.20;60.90;;;;;;4975948;28;20052;-81
2022/05/18 08:57:28;;;;;;;12.88;3.25;;;25.20;60.70;;;;;;4980047;28;20031;-82
2022/05/18 09:00:00;;;;;;;9.20;2.20;;;25.20;59.70;;;;;;4972686;28;20174;-83
2022/05/18 09:02:32;;;;;;;11.60;1.95;;;25.20;59.10;;;;;;4965085;28;20246;-82
2022/05/18 09:05:03;;;;;;;10.43;3.10;;;25.10;58.60;;;;;;4969996;28;20178;-83
2022/05/18 09:07:37;;;;;;;13.82;3.33;;;25.00;58.30;;;;;;4962647;28;20065;-83
2022/05/18 09:10:12;;;;;;;10.98;3.15;;;24.90;57.60;;;;;;4954293;28;20421;-82
2022/05/18 09:12:41;;;;;;;10.80;2.72;;;24.80;57.20;;;;;;4991404;28;20042;-78
2022/05/18 09:15:09;;;;;;;11.98;2.58;;;24.80;57.00;;;;;;4982499;28;20098;-76
2022/05/18 09:17:53;;;;;;;12.90;3.28;;;24.80;56.80;;;;;;4975202;28;20034;-81
2022/05/18 09:20:49;;;;;;;11.90;3.38;;;24.80;56.50;;;;;;4987693;28;20205;-82
2022/05/18 09:23:36;;;;;;;8.80;2.50;;;24.80;55.90;;;;;;4976968;28;20031;-80
2022/05/18 09:26:28;;;;;;;15.55;3.90;;;24.70;55.90;;;;;;4986283;28;20043;-81
2022/05/18 09:29:12;;;;;;;10.88;2.35;;;24.50;55.30;;;;;;4977211;28;20049;-84
2022/05/18 09:31:53;;;;;;;12.65;3.55;;;24.40;55.50;;;;;;4983934;28;20889;-85
2022/05/18 09:35:04;;;;;;;11.98;2.95;;;24.30;55.60;;;;;;4980091;28;20093;-84
2022/05/18 09:38:05;;;;;;;8.77;2.85;;;24.40;55.40;;;;;;4976986;28;20355;-82
2022/05/18 09:40:42;;;;;;;11.52;2.70;;;24.50;55.40;;;;;;4969585;28;20042;-76
2022/05/18 09:43:39;;;;;;;10.18;2.42;;;24.60;55.40;;;;;;4966858;28;20100;-74
2022/05/18 09:46:11;;;;;;;8.80;2.30;;;24.90;55.20;;;;;;4979357;28;20143;-74
2022/05/18 09:48:56;;;;;;;8.75;2.35;;;25.10;55.00;;;;;;4981859;28;20502;-74
2022/05/18 09:51:23;;;;;;;12.73;3.17;;;25.10;54.40;;;;;;4979271;28;20289;-73
2022/05/18 09:53:50;;;;;;;8.80;2.58;;;25.20;54.40;;;;;;4964176;28;20058;-74
2022/05/18 09:56:21;;;;;;;9.23;2.90;;;25.30;54.20;;;;;;4984313;28;20113;-75
2022/05/18 09:58:49;;;;;;;11.38;2.30;;;25.40;53.80;;;;;;4983480;28;20318;-75
2022/05/18 10:09:44;;;;;;;9.68;2.42;;;25.20;53.80;;;;;;4980848;28;20085;-81
2022/05/18 10:12:12;;;;;;;8.52;3.20;;;25.30;53.60;;;;;;4989960;28;20117;-84
2022/05/18 10:14:39;;;;;;;10.95;3.63;;;25.40;53.50;;;;;;4977264;28;20049;-82
2022/05/18 10:17:12;;;;;;;9.93;1.80;;;25.50;53.30;;;;;;4990201;28;20212;-81
2022/05/18 10:20:05;;;;;;;7.70;2.70;;;25.60;53.00;;;;;;4989753;28;20038;-81
2022/05/18 10:22:35;;;;;;;12.32;2.65;;;25.70;52.40;;;;;;4963330;28;20122;-77
2022/05/18 10:25:09;;;;;;;6.85;2.30;;;25.80;52.60;;;;;;4987465;28;20073;-78
2022/05/18 10:27:39;;;;;;;9.93;2.10;;;25.90;52.30;;;;;;4961925;28;20069;-76
2022/05/18 10:30:13;;;;;;;7.38;2.42;;;25.90;51.90;;;;;;4977649;28;20129;-79
2022/05/18 10:33:00;;;;;;;16.80;2.30;;;25.90;51.70;;;;;;4971924;28;20125;-76
2022/05/18 10:35:51;;;;;;;11.23;2.88;;;25.80;51.10;;;;;;4984936;28;20018;-76
2022/05/18 10:38:27;;;;;;;9.65;2.53;;;25.60;51.10;;;;;;4980283;28;20755;-77
2022/05/18 10:41:08;;;;;;;9.48;2.88;;;25.50;51.50;;;;;;4983715;28;20241;-77
2022/05/18 10:43:58;;;;;;;8.05;2.05;;;25.50;51.30;;;;;;4984191;28;20549;-77
2022/05/18 10:46:46;;;;;;;10.90;3.20;;;25.50;51.30;;;;;;4986029;28;20428;-75
2022/05/18 10:49:29;;;;;;;11.60;2.22;;;25.50;51.40;;;;;;4986399;28;20062;-77
2022/05/18 10:52:10;;;;;;;8.60;3.00;;;25.60;51.70;;;;;;5005224;28;20026;-76
2022/05/18 10:54:36;;;;;;;9.25;2.33;;;25.70;51.50;;;;;;5009972;28;20039;-76
2022/05/18 10:57:12;;;;;;;10.52;3.20;;;26.00;51.50;;;;;;5014722;28;20240;-79
2022/05/18 11:00:00;;;;;;;10.48;2.95;;;26.20;50.90;;;;;;5011434;28;20045;-83
2022/05/18 11:02:44;;;;;;;9.65;3.08;;;26.40;50.70;;;;;;5010427;28;20023;-82
2022/05/18 11:05:31;;;;;;;8.82;2.15;;;26.70;50.40;;;;;;4993254;28;20131;-79
2022/05/18 11:07:57;;;;;;;8.23;2.33;;;26.90;50.10;;;;;;4985612;28;20042;-81
2022/05/18 11:10:33;;;;;;;5.25;1.67;;;27.00;49.90;;;;;;4969934;28;20030;-80
2022/05/18 11:13:18;;;;;;;14.40;3.15;;;27.20;49.70;;;;;;4983809;28;20038;-80
2022/05/18 11:15:50;;;;;;;8.07;2.05;;;27.30;49.50;;;;;;4984772;28;20309;-80
2022/05/18 11:18:31;;;;;;;;;;;27.30;49.40;;;;;;4986801;28;20034;-84
2022/05/18 11:21:03;;;;;;;12.32;3.28;;;27.20;49.60;;;;;;4982423;28;19910;-85
2022/05/18 11:23:44;;;;;;;13.90;2.60;;;27.20;49.80;;;;;;4980638;28;20072;-83
2022/05/18 11:26:26;;;;;;;10.05;2.53;;;27.20;49.80;;;;;;4985767;28;20288;-88
2022/05/18 11:28:58;;;;;;;9.02;2.25;;;27.10;49.50;;;;;;4979345;28;20057;-89
2022/05/18 11:31:45;;;;;;;8.52;2.53;;;27.20;49.70;;;;;;4971699;28;20039;-86
2022/05/18 11:34:20;;;;;;;8.50;2.00;;;27.30;49.40;;;;;;4986387;28;20034;-89
2022/05/18 11:37:01;;;;;;;9.88;2.50;;;27.40;49.40;;;;;;4989121;28;20506;-89
2022/05/18 11:39:52;;;;;;;6.68;1.80;;;27.40;49.00;;;;;;4983227;28;20359;-87
2022/05/18 11:42:31;;;;;;;6.93;1.90;;;27.50;48.60;;;;;;4965248;28;20324;-81
2022/05/18 11:45:04;;;;;;;10.18;2.22;;;27.60;48.70;;;;;;4984514;28;20033;-83
2022/05/18 11:47:42;;;;;;;7.97;1.95;;;27.50;48.50;;;;;;4984613;28;20543;-83
2022/05/18 11:50:36;;;;;;;7.65;2.22;;;27.50;48.30;;;;;;4986904;28;20382;-83
2022/05/18 11:53:34;;;;;;;13.18;2.47;;;27.50;48.20;;;;;;4963297;28;20040;-83
2022/05/18 11:56:14;;;;;;;5.85;2.28;;;27.40;48.00;;;;;;4984229;28;20113;-84
2022/05/18 11:58:50;;;;;;;5.45;1.95;;;27.40;48.10;;;;;;4967736;28;20382;-83
2022/05/18 12:01:45;;;;;;;9.13;2.55;;;27.30;48.10;;;;;;4986885;28;20050;-84
2022/05/18 12:04:41;;;;;;;6.00;1.77;;;27.20;47.90;;;;;;4957220;28;20045;-82
2022/05/18 12:07:29;;;;;;;9.60;2.13;;;27.30;47.90;;;;;;4978339;28;20101;-84
2022/05/18 12:10:08;;;;;;;9.57;2.63;;;27.30;48.00;;;;;;4986619;28;20038;-86
2022/05/18 12:12:50;;;;;;;10.23;2.65;;;27.40;47.90;;;;;;4982947;28;20233;-89
2022/05/18 12:15:28;;;;;;;8.90;2.20;;;27.50;47.80;;;;;;4981791;28;20041;-86
2022/05/18 12:18:03;;;;;;;7.78;3.08;;;27.60;47.80;;;;;;4980572;28;20034;-86
2022/05/18 12:20:32;;;;;;;11.00;3.15;;;27.70;47.50;;;;;;4963154;28;20081;-84
2022/05/18 12:23:01;;;;;;;7.22;1.98;;;27.80;47.50;;;;;;4984553;28;20041;-82
2022/05/18 12:25:29;;;;;;;7.50;1.83;;;27.90;47.40;;;;;;4966527;28;20038;-77
2022/05/18 12:28:02;;;;;;;6.97;2.10;;;27.90;47.40;;;;;;4972851;28;20053;-78
2022/05/18 12:30:33;;;;;;;8.48;2.22;;;28.00;47.20;;;;;;4943163;28;20034;-78
2022/05/18 12:33:01;;;;;;;10.05;2.92;;;28.00;47.00;;;;;;4983550;28;20033;-79
2022/05/18 12:35:46;;;;;;;10.32;3.30;;;28.00;46.90;;;;;;4978519;28;20053;-79
2022/05/18 12:38:31;;;;;;;5.38;2.22;;;28.00;46.70;;;;;;4977149;28;20153;-76
2022/05/18 12:41:12;;;;;;;5.13;2.33;;;28.00;46.50;;;;;;4959028;28;20154;-77
2022/05/18 12:43:44;;;;;;;6.95;1.92;;;28.10;46.40;;;;;;4983427;28;20038;-85
2022/05/18 12:46:21;;;;;;;7.90;2.15;;;28.20;46.40;;;;;;4983293;28;20353;-77
2022/05/18 12:48:57;;;;;;;9.27;1.40;;;28.30;45.90;;;;;;4967316;28;20139;-75
2022/05/18 12:51:31;;;;;;;7.93;1.70;;;28.40;45.90;;;;;;4980031;28;20034;-76
2022/05/18 12:54:26;;;;;;;6.90;2.70;;;28.40;45.90;;;;;;4973907;28;20600;-81
2022/05/18 12:57:09;;;;;;;9.32;2.42;;;28.50;45.80;;;;;;4963027;28;20042;-84
2022/05/18 12:59:44;;;;;;;;;;;28.50;45.80;;;;;;4990385;28;20038;-82
2022/05/18 13:02:37;;;;;;;5.72;1.67;;;28.70;46.10;;;;;;4982537;28;20374;-82
2022/05/18 13:05:04;;;;;;;;;;;28.90;45.70;;;;;;4966491;28;20121;-87
2022/05/18 13:07:35;;;;;;;9.05;2.55;;;29.10;45.90;;;;;;4981847;28;20435;-83
2022/05/18 13:10:16;;;;;;;11.43;2.53;;;29.30;45.70;;;;;;4978273;28;20121;-87
2022/05/18 13:13:00;;;;;;;5.93;1.85;;;29.30;45.00;;;;;;4977394;28;20136;-85
2022/05/18 13:15:37;;;;;;;7.38;1.92;;;29.40;44.80;;;;;;4978604;28;20033;-85
2022/05/18 13:18:11;;;;;;;6.05;2.15;;;29.50;44.90;;;;;;4986735;28;20030;-85
2022/05/18 13:21:06;;;;;;;4.72;1.80;;;29.50;44.50;;;;;;4963853;28;20355;-83
2022/05/18 13:23:50;;;;;;;6.88;2.42;;;29.30;44.30;;;;;;4981029;28;20033;-83
2022/05/18 13:26:25;;;;;;;7.30;2.15;;;29.10;44.60;;;;;;4961308;28;20502;-86
2022/05/18 13:28:53;;;;;;;9.07;2.13;;;29.10;44.50;;;;;;4962218;28;20647;-73